Wichita Mid Continent Airport
KICT : now visible

Aeroporto :











RITROVATECI SU...

 
LOGIN :

Iscrizione | Disclaimer

   EN    FR    IT 

 









Sommario :    VFR   VFR Marginale   IFR   IFR Intensivo   IFR Molto Intensivo
Visibilità : 
Base nubi : 
>= 8 km
>= 3000ft
5 / 8 km
1000 / 3000 ft
1500m / 5 km
500 / 1000 ft
800 / 1500m
200 / 500 ft
< 800m
< 200 ft
Simboli :   Temporali  Nebbia  Neve Forte  Precipitazioni Forti  Vento > 20 kt







- Altitudine del aeroporto : 1333 ft
- Codice IATA : ICT


KICT - Wichita Mid Continent

ULTIMO METAR :
  • 260453Z 12009KT 10SM SCT050 SCT160 23/20 A2980 RMK AO2 SLP079 T02280200 $

METARs OBSOLETI :
  • 260353Z 12008KT 10SM FEW055 FEW200 23/20 A2981 RMK AO2 SLP083 T02330200 $
  • 260253Z 11008KT 10SM FEW080 SCT180 24/20 A2981 RMK AO2 SLP082 T02390200 53006 $

TAF KICT
Valido dal 26 a 00 ore il 27 a 00 ore UTC


252336Z 2600/2624 15006KT P6SM SKC
TEMPO 2608/2612 5SM BR FEW015
FM261200 17010KT P6SM SCT018
FM261500 19013KT P6SM FEW030
FM261800 22011KT P6SM SCT040
FM262100 33014G20KT P6SM FEW050
Nessun NOTAM noto per questo aeroporto.



MetMap, La meteo Aeronautica in un colpo d'occhio ! - Copyright ORBIFLY Dicembre 2007 - Disclaimer

ORBIFLY MET'MAP TEAM :

Programmazione e sviluppo : Alexandra Zaïnal
Concezione e sviluppo : Baudouin d'Aumeries
Co-Programmazione e sviluppo : Marc-Olivier Méhu
Supporto tecnico e logistico : Manuel Goepfert
Aiuto per la traduzione : Arnaldo La Scala

Contatto : metmap@orbifly.com




FONTI E CREDITI :

   NOAA       Earth
Advisory